Time;durP1;ratioP1;P1;durP2;ratioP2;P2;SDS_P1;SDS_P2;PMS_P1;PMS_P2;Temp;Humidity;BMP_temperature;BMP_pressure;BME280_temperature;BME280_humidity;BME280_pressure;Samples;Min_cycle;Max_cycle;Signal;HPM_P1;HPM_P2
2024/03/14 00:01:23;;;;;;;8.82;6.50;;;11.30;99.90;;;;;;5035055;28;20018;-52
2024/03/14 00:03:50;;;;;;;14.35;7.15;;;11.30;99.90;;;;;;5035058;28;20105;-52
2024/03/14 00:06:18;;;;;;;8.40;6.60;;;11.20;99.90;;;;;;5034874;28;20083;-51
2024/03/14 00:08:43;;;;;;;11.75;7.70;;;11.20;99.90;;;;;;5034896;28;20026;-55
2024/03/14 00:11:09;;;;;;;10.00;6.43;;;11.20;99.90;;;;;;5017092;28;20375;-51
2024/03/14 00:13:35;;;;;;;10.52;7.45;;;11.20;99.90;;;;;;5034460;28;20025;-55
2024/03/14 00:16:00;;;;;;;11.50;7.15;;;11.20;99.90;;;;;;5034941;28;20022;-52
2024/03/14 00:18:26;;;;;;;13.02;6.75;;;11.10;99.90;;;;;;5034840;28;20440;-49
2024/03/14 00:20:52;;;;;;;14.52;7.30;;;11.10;99.90;;;;;;5034313;28;20028;-58
2024/03/14 00:23:18;;;;;;;11.48;6.93;;;11.10;99.90;;;;;;5034663;28;20026;-56
2024/03/14 00:25:43;;;;;;;10.38;6.82;;;11.00;99.90;;;;;;5034589;28;20112;-57
2024/03/14 00:28:09;;;;;;;8.15;6.53;;;11.10;99.90;;;;;;5016747;28;20029;-52
2024/03/14 00:30:36;;;;;;;9.27;6.70;;;11.00;99.90;;;;;;5016519;28;20442;-53
2024/03/14 00:33:01;;;;;;;7.30;6.50;;;11.00;99.90;;;;;;5034553;28;20030;-54
2024/03/14 00:35:27;;;;;;;16.98;6.85;;;11.00;99.90;;;;;;5034520;28;20032;-54
2024/03/14 00:37:53;;;;;;;10.68;6.80;;;11.00;99.90;;;;;;5034529;28;20029;-54
2024/03/14 00:40:19;;;;;;;12.00;7.00;;;11.00;99.90;;;;;;5034111;28;20037;-51
2024/03/14 00:42:45;;;;;;;11.45;7.22;;;11.00;99.90;;;;;;5016515;28;20511;-55
2024/03/14 00:45:12;;;;;;;16.10;7.57;;;11.00;99.90;;;;;;5034774;28;20029;-57
2024/03/14 00:47:38;;;;;;;12.40;7.13;;;11.00;99.90;;;;;;5034224;28;20029;-60
2024/03/14 00:50:10;;;;;;;12.90;7.25;;;11.00;99.90;;;;;;5033252;28;20416;-58
2024/03/14 00:52:36;;;;;;;10.88;7.15;;;11.00;99.90;;;;;;5034152;28;20018;-55
2024/03/14 00:55:01;;;;;;;7.65;6.85;;;11.00;99.90;;;;;;5016227;28;20032;-57
2024/03/14 00:57:28;;;;;;;9.13;6.22;;;11.00;99.90;;;;;;5034216;28;20026;-56
2024/03/14 00:59:53;;;;;;;9.27;6.78;;;11.00;99.90;;;;;;5033889;28;20033;-54
2024/03/14 01:02:19;;;;;;;29.10;13.90;;;11.00;99.90;;;;;;5033983;28;20834;-55
2024/03/14 01:04:45;;;;;;;142.55;84.22;;;11.00;99.90;;;;;;5034003;28;20029;-58
2024/03/14 01:07:11;;;;;;;19.17;11.25;;;11.00;99.90;;;;;;5033801;28;20029;-58
2024/03/14 01:09:39;;;;;;;10.07;6.30;;;11.00;99.90;;;;;;5033445;28;20041;-54
2024/03/14 01:12:04;;;;;;;10.23;6.13;;;11.00;99.90;;;;;;5033063;28;20025;-57
2024/03/14 01:14:30;;;;;;;9.88;6.47;;;11.00;99.90;;;;;;5034069;28;20164;-57
2024/03/14 01:16:55;;;;;;;7.68;6.25;;;10.90;99.90;;;;;;5033665;28;20538;-56
2024/03/14 01:19:21;;;;;;;9.95;6.75;;;11.00;99.90;;;;;;5033289;28;20060;-58
2024/03/14 01:21:46;;;;;;;11.77;6.60;;;10.90;99.90;;;;;;5015981;28;20180;-57
2024/03/14 01:24:12;;;;;;;11.15;6.47;;;10.90;99.90;;;;;;5032936;28;20030;-57
2024/03/14 01:26:37;;;;;;;8.10;6.30;;;10.90;99.90;;;;;;5015832;28;20026;-53
2024/03/14 01:29:03;;;;;;;12.25;7.03;;;11.00;99.90;;;;;;5033389;28;20033;-48
2024/03/14 01:31:29;;;;;;;9.40;7.28;;;11.00;99.90;;;;;;5033403;28;20025;-51
2024/03/14 01:33:54;;;;;;;11.20;6.57;;;11.00;99.90;;;;;;5033338;28;20112;-53
2024/03/14 01:36:20;;;;;;;18.55;6.97;;;11.10;99.90;;;;;;5015504;28;20033;-56
2024/03/14 01:38:46;;;;;;;10.88;6.63;;;11.10;99.90;;;;;;5015151;28;20021;-58
2024/03/14 01:41:21;;;;;;;11.45;7.53;;;11.00;99.90;;;;;;5033415;28;20469;-51
2024/03/14 01:43:57;;;;;;;;;;;11.10;99.90;;;;;;5016027;28;20120;-53
2024/03/14 01:46:28;;;;;;;8.80;6.07;;;11.00;99.90;;;;;;5033060;28;20368;-56
2024/03/14 01:48:55;;;;;;;15.30;7.43;;;11.10;99.90;;;;;;5015213;28;20072;-59
2024/03/14 01:51:22;;;;;;;10.82;6.15;;;11.00;99.90;;;;;;5032953;28;20021;-57
2024/03/14 01:53:48;;;;;;;12.45;7.05;;;11.00;99.90;;;;;;5033041;28;20028;-54
2024/03/14 01:56:14;;;;;;;9.15;6.18;;;11.00;99.90;;;;;;5032927;28;20021;-57
2024/03/14 01:58:40;;;;;;;11.15;6.50;;;11.00;99.90;;;;;;5014977;28;20124;-54
2024/03/14 02:01:05;;;;;;;9.57;6.43;;;11.00;99.90;;;;;;5032869;28;20025;-57
2024/03/14 02:03:31;;;;;;;13.25;7.07;;;11.00;99.90;;;;;;5032732;28;20029;-59
2024/03/14 02:06:18;;;;;;;10.25;6.75;;;11.00;99.90;;;;;;5015073;28;20034;-56
2024/03/14 02:08:44;;;;;;;14.07;7.30;;;11.00;99.90;;;;;;5032445;28;20086;-56
2024/03/14 02:11:10;;;;;;;10.95;6.68;;;10.90;99.90;;;;;;5014902;28;20112;-54
2024/03/14 02:13:35;;;;;;;10.57;6.55;;;11.00;99.90;;;;;;5033472;28;20036;-58
2024/03/14 02:16:01;;;;;;;9.60;6.30;;;11.00;99.90;;;;;;5033487;28;20097;-58
2024/03/14 02:18:26;;;;;;;9.77;6.65;;;10.90;99.90;;;;;;5032322;28;20104;-56
2024/03/14 02:20:52;;;;;;;11.52;7.75;;;10.90;99.90;;;;;;5032349;28;20538;-52
2024/03/14 02:23:17;;;;;;;13.50;6.68;;;10.90;99.90;;;;;;5032715;28;20031;-57
2024/03/14 02:25:43;;;;;;;12.07;7.32;;;10.90;99.90;;;;;;5032225;28;20033;-51
2024/03/14 02:28:08;;;;;;;14.68;7.85;;;10.90;99.90;;;;;;5032341;28;20104;-52
2024/03/14 02:30:34;;;;;;;10.98;7.30;;;10.80;99.90;;;;;;5032005;28;20061;-54
2024/03/14 02:32:59;;;;;;;9.20;7.35;;;10.80;99.90;;;;;;5032144;28;20033;-55
2024/03/14 02:35:25;;;;;;;19.88;9.35;;;10.80;99.90;;;;;;5031856;28;20444;-55
2024/03/14 02:37:52;;;;;;;11.52;7.78;;;10.70;99.90;;;;;;5014322;28;20112;-53
2024/03/14 02:40:18;;;;;;;12.98;8.07;;;10.70;99.90;;;;;;5032021;28;20067;-54
2024/03/14 02:42:44;;;;;;;14.60;8.63;;;10.60;99.90;;;;;;5014369;28;20475;-52
2024/03/14 02:45:10;;;;;;;14.43;8.20;;;10.60;99.90;;;;;;5032354;28;20028;-57
2024/03/14 02:47:36;;;;;;;19.38;8.80;;;10.60;99.90;;;;;;5031952;28;20030;-54
2024/03/14 02:50:02;;;;;;;14.82;9.40;;;10.50;99.90;;;;;;5031603;28;20031;-57
2024/03/14 02:52:28;;;;;;;14.95;8.27;;;10.50;99.90;;;;;;5032203;28;20112;-54
2024/03/14 02:54:55;;;;;;;13.77;8.27;;;10.50;99.90;;;;;;5032070;28;20076;-51
2024/03/14 02:57:21;;;;;;;13.25;9.40;;;10.40;99.90;;;;;;5031831;28;20078;-59
2024/03/14 02:59:46;;;;;;;12.13;8.23;;;10.40;99.90;;;;;;5031593;28;20488;-57
2024/03/14 03:02:15;;;;;;;12.73;9.00;;;10.40;99.90;;;;;;5032040;28;20029;-56
2024/03/14 03:04:41;;;;;;;12.02;8.00;;;10.40;99.90;;;;;;5013985;28;20030;-55
2024/03/14 03:07:06;;;;;;;11.38;8.43;;;10.40;99.90;;;;;;5031526;28;20052;-55
2024/03/14 03:09:32;;;;;;;13.15;8.63;;;10.40;99.90;;;;;;5031335;28;20029;-53
2024/03/14 03:11:58;;;;;;;9.85;7.85;;;10.30;99.90;;;;;;5014204;28;20025;-55
2024/03/14 03:14:24;;;;;;;12.45;8.88;;;10.30;99.90;;;;;;5031493;28;20044;-56
2024/03/14 03:16:49;;;;;;;13.63;8.32;;;10.20;99.90;;;;;;5031492;28;20022;-59
2024/03/14 03:19:15;;;;;;;13.27;8.18;;;10.20;99.90;;;;;;5013507;28;20129;-55
2024/03/14 03:21:41;;;;;;;15.25;8.32;;;10.20;99.90;;;;;;5031421;28;20041;-55
2024/03/14 03:24:11;;;;;;;11.77;8.32;;;10.20;99.90;;;;;;5031269;28;20470;-55
2024/03/14 03:26:37;;;;;;;14.57;9.18;;;10.20;99.90;;;;;;5013616;28;20053;-55
2024/03/14 03:29:03;;;;;;;12.30;8.15;;;10.20;99.90;;;;;;5013648;28;20071;-54
2024/03/14 03:31:29;;;;;;;15.05;8.05;;;10.30;99.90;;;;;;5013711;28;20045;-54
2024/03/14 03:33:55;;;;;;;11.20;7.80;;;10.20;99.90;;;;;;5033814;28;20018;-53
2024/03/14 03:36:22;;;;;;;11.88;8.18;;;10.30;99.90;;;;;;5038574;28;20389;-51
2024/03/14 03:38:48;;;;;;;17.98;8.10;;;10.30;99.90;;;;;;5037902;28;20030;-50
2024/03/14 03:41:14;;;;;;;12.35;8.07;;;10.30;99.90;;;;;;5019993;28;20033;-53
2024/03/14 03:43:40;;;;;;;11.25;8.80;;;10.20;99.90;;;;;;5037951;28;20033;-53
2024/03/14 03:46:09;;;;;;;13.43;8.20;;;10.20;99.90;;;;;;5019943;28;20030;-55
2024/03/14 03:48:38;;;;;;;12.15;7.50;;;10.10;99.90;;;;;;5037621;28;20032;-52
2024/03/14 03:51:04;;;;;;;17.10;8.88;;;10.10;99.90;;;;;;5037907;28;20025;-51
2024/03/14 03:53:32;;;;;;;11.70;8.20;;;10.10;99.90;;;;;;5037832;28;20049;-56
2024/03/14 03:55:58;;;;;;;9.90;7.68;;;10.10;99.90;;;;;;5037932;28;20018;-56
2024/03/14 03:58:23;;;;;;;13.18;7.75;;;10.10;99.90;;;;;;5037647;28;20017;-52
2024/03/14 04:00:52;;;;;;;14.32;8.82;;;10.10;99.90;;;;;;5037626;28;20029;-56
2024/03/14 04:03:20;;;;;;;9.57;6.90;;;10.10;99.90;;;;;;5037722;28;20021;-54
2024/03/14 04:05:45;;;;;;;11.25;6.40;;;10.10;99.90;;;;;;5037693;28;20017;-58
2024/03/14 04:08:14;;;;;;;8.95;7.25;;;10.10;99.90;;;;;;5038002;28;20028;-55
2024/03/14 04:10:40;;;;;;;15.75;8.07;;;10.10;99.90;;;;;;5037475;28;20021;-56
2024/03/14 04:13:06;;;;;;;16.73;8.43;;;10.10;99.90;;;;;;5037266;28;20024;-56
2024/03/14 04:15:31;;;;;;;14.32;7.57;;;10.10;99.90;;;;;;5019457;28;20025;-57
2024/03/14 04:17:57;;;;;;;12.32;7.40;;;10.10;99.90;;;;;;5037361;28;20072;-57
2024/03/14 04:20:26;;;;;;;17.45;8.25;;;10.10;99.90;;;;;;5037190;28;20378;-57
2024/03/14 04:22:55;;;;;;;15.98;7.85;;;10.10;99.90;;;;;;5037444;28;20025;-57
2024/03/14 04:25:20;;;;;;;11.52;6.63;;;10.10;99.90;;;;;;5019374;28;20033;-57
2024/03/14 04:27:53;;;;;;;13.63;7.50;;;10.10;99.90;;;;;;5037609;28;20112;-56
2024/03/14 04:30:23;;;;;;;11.93;7.75;;;10.00;99.90;;;;;;5037135;28;20025;-54
2024/03/14 04:32:51;;;;;;;11.73;7.82;;;10.00;99.90;;;;;;5037390;28;20026;-58
2024/03/14 04:35:18;;;;;;;9.95;7.22;;;10.00;99.90;;;;;;5037537;28;20041;-57
2024/03/14 04:37:47;;;;;;;9.10;7.18;;;9.90;99.90;;;;;;5037503;28;20018;-55
2024/03/14 04:40:17;;;;;;;9.38;7.63;;;9.80;99.90;;;;;;5019504;28;20132;-59
2024/03/14 04:42:43;;;;;;;11.63;8.05;;;9.80;99.90;;;;;;5037449;28;20029;-57
2024/03/14 04:45:13;;;;;;;12.52;7.75;;;9.80;99.90;;;;;;5018603;28;20116;-54
2024/03/14 04:47:39;;;;;;;14.52;8.93;;;9.90;99.90;;;;;;5033739;28;20040;-55
2024/03/14 04:50:09;;;;;;;13.00;7.68;;;10.00;99.90;;;;;;5034121;28;20040;-55
2024/03/14 04:52:35;;;;;;;11.80;8.65;;;9.80;99.90;;;;;;5034482;28;20066;-59
2024/03/14 04:55:05;;;;;;;13.05;8.18;;;9.70;99.90;;;;;;5034017;28;20100;-58
2024/03/14 04:57:33;;;;;;;14.98;7.43;;;9.80;99.90;;;;;;5034102;28;20025;-56
2024/03/14 04:59:59;;;;;;;9.98;7.80;;;9.60;99.90;;;;;;5033995;28;20025;-54
2024/03/14 05:02:24;;;;;;;9.82;7.05;;;9.60;99.90;;;;;;5033986;28;20025;-57
2024/03/14 05:04:50;;;;;;;10.75;7.90;;;9.60;99.90;;;;;;5033864;28;20108;-56
2024/03/14 05:07:15;;;;;;;15.57;7.90;;;9.60;99.90;;;;;;5033597;28;20029;-57
2024/03/14 05:09:41;;;;;;;10.02;6.60;;;9.50;99.90;;;;;;5033173;28;20509;-55
2024/03/14 05:12:07;;;;;;;12.00;7.68;;;9.50;99.90;;;;;;5033700;28;20023;-56
2024/03/14 05:14:33;;;;;;;10.57;7.35;;;9.50;99.90;;;;;;5033751;28;20488;-55
2024/03/14 05:16:59;;;;;;;10.95;7.38;;;9.50;99.90;;;;;;5033652;28;20030;-54
2024/03/14 05:19:25;;;;;;;14.43;8.43;;;9.50;99.90;;;;;;5032816;28;20033;-57
2024/03/14 05:21:50;;;;;;;9.40;7.22;;;9.50;99.90;;;;;;5033616;28;20029;-58
2024/03/14 05:24:16;;;;;;;8.20;6.93;;;9.40;99.90;;;;;;5015175;28;20551;-58
2024/03/14 05:26:43;;;;;;;8.95;6.95;;;9.50;99.90;;;;;;5033383;28;20040;-55
2024/03/14 05:29:08;;;;;;;8.85;6.97;;;9.50;99.90;;;;;;5015283;28;20057;-55
2024/03/14 05:31:37;;;;;;;9.23;6.20;;;9.40;99.90;;;;;;5033436;28;20144;-56
2024/03/14 05:34:02;;;;;;;8.75;7.25;;;9.50;99.90;;;;;;5033270;28;20405;-59
2024/03/14 05:36:28;;;;;;;10.95;7.40;;;9.40;99.90;;;;;;5033356;28;20021;-55
2024/03/14 05:38:53;;;;;;;12.27;7.07;;;9.40;99.90;;;;;;5033328;28;20029;-48
2024/03/14 05:41:19;;;;;;;14.85;8.90;;;9.40;99.90;;;;;;5033781;28;20033;-55
2024/03/14 05:43:45;;;;;;;19.75;10.30;;;9.60;99.90;;;;;;5033423;28;20477;-55
2024/03/14 05:46:11;;;;;;;14.20;10.70;;;9.70;99.90;;;;;;5033346;28;20347;-53
2024/03/14 05:48:37;;;;;;;14.65;10.27;;;9.70;99.90;;;;;;5015091;28;20032;-51
2024/03/14 05:51:02;;;;;;;17.02;12.45;;;9.60;99.90;;;;;;5032601;28;20108;-52
2024/03/14 05:53:31;;;;;;;16.33;11.88;;;9.60;99.90;;;;;;5032908;28;20477;-56
2024/03/14 05:55:56;;;;;;;15.55;11.38;;;9.50;99.90;;;;;;5032866;28;20018;-55
2024/03/14 05:58:22;;;;;;;16.73;11.15;;;9.50;99.90;;;;;;5014659;28;20485;-57
2024/03/14 06:00:47;;;;;;;14.02;10.38;;;9.50;99.90;;;;;;5032603;28;20165;-56
2024/03/14 06:03:13;;;;;;;11.48;9.65;;;9.40;99.90;;;;;;5032651;28;20051;-53
2024/03/14 06:05:39;;;;;;;17.42;9.93;;;9.50;99.90;;;;;;5032860;28;20555;-56
2024/03/14 06:08:05;;;;;;;11.63;9.77;;;9.50;99.90;;;;;;5032787;28;20030;-54
2024/03/14 06:10:30;;;;;;;15.35;9.25;;;9.50;99.90;;;;;;5014628;28;20091;-56
2024/03/14 06:12:56;;;;;;;13.77;8.98;;;9.50;99.90;;;;;;5032409;28;20393;-56
2024/03/14 06:15:21;;;;;;;14.80;8.73;;;9.60;99.90;;;;;;5032680;28;20025;-53
2024/03/14 06:17:50;;;;;;;15.60;9.75;;;9.60;99.90;;;;;;5032701;28;20025;-50
2024/03/14 06:20:18;;;;;;;14.32;9.38;;;9.70;99.90;;;;;;5032711;28;20029;-56
2024/03/14 06:22:44;;;;;;;15.50;9.88;;;9.70;99.90;;;;;;5014597;28;20060;-53
2024/03/14 06:25:10;;;;;;;10.85;9.45;;;9.70;99.90;;;;;;5031916;28;20025;-54
2024/03/14 06:27:36;;;;;;;11.18;8.85;;;9.70;99.90;;;;;;5032777;28;20022;-54
2024/03/14 06:30:09;;;;;;;11.52;9.18;;;9.80;99.90;;;;;;5032277;28;20591;-57
2024/03/14 06:32:36;;;;;;;13.13;10.13;;;9.80;99.90;;;;;;5032541;28;20104;-56
2024/03/14 06:35:11;;;;;;;15.35;11.40;;;9.80;99.90;;;;;;5032536;28;20476;-56
2024/03/14 06:37:37;;;;;;;14.45;10.52;;;9.90;99.90;;;;;;5014920;28;20022;-58
2024/03/14 06:40:05;;;;;;;11.63;9.75;;;9.90;99.90;;;;;;5032312;28;20504;-53
2024/03/14 06:42:32;;;;;;;11.98;9.88;;;10.00;99.90;;;;;;5014703;28;20021;-56
2024/03/14 06:45:02;;;;;;;15.68;10.88;;;10.00;99.90;;;;;;5032775;28;20208;-53
2024/03/14 06:47:31;;;;;;;15.10;9.60;;;10.00;99.90;;;;;;5014481;28;20056;-56
2024/03/14 06:50:00;;;;;;;13.77;10.18;;;10.00;99.90;;;;;;5031737;28;20036;-52
2024/03/14 06:52:26;;;;;;;14.82;10.45;;;10.00;99.90;;;;;;5014350;28;20124;-55
2024/03/14 06:54:53;;;;;;;14.95;9.85;;;10.10;99.90;;;;;;5032071;28;20511;-53
2024/03/14 06:57:19;;;;;;;14.73;10.35;;;10.20;99.90;;;;;;5031743;28;20018;-54
2024/03/14 06:59:48;;;;;;;12.00;10.55;;;10.30;99.90;;;;;;5033771;28;20514;-58
2024/03/14 07:02:17;;;;;;;12.48;10.05;;;10.30;99.90;;;;;;5031702;28;20378;-55
2024/03/14 07:04:42;;;;;;;14.80;9.95;;;10.40;99.90;;;;;;5013894;28;20040;-54
2024/03/14 07:07:11;;;;;;;13.60;9.05;;;10.50;99.90;;;;;;5031650;28;20029;-55
2024/03/14 07:09:39;;;;;;;16.08;9.93;;;10.60;99.90;;;;;;5031247;28;20398;-49
2024/03/14 07:12:11;;;;;;;12.73;9.25;;;10.80;99.90;;;;;;5030926;28;20450;-53
2024/03/14 07:14:36;;;;;;;15.57;9.77;;;10.90;99.90;;;;;;5031630;28;20025;-52
2024/03/14 07:17:02;;;;;;;11.45;8.68;;;11.10;99.90;;;;;;5013783;28;20392;-47
2024/03/14 07:19:28;;;;;;;12.45;9.10;;;11.30;99.90;;;;;;5030751;28;20120;-46
2024/03/14 07:21:56;;;;;;;12.50;9.23;;;11.40;99.90;;;;;;5031690;28;20029;-58
2024/03/14 07:24:23;;;;;;;14.27;8.95;;;11.50;99.90;;;;;;5031232;28;20022;-53
2024/03/14 07:26:49;;;;;;;12.80;9.57;;;11.80;99.90;;;;;;5031532;28;20403;-49
2024/03/14 07:29:15;;;;;;;11.65;8.63;;;12.10;99.90;;;;;;5027234;28;20029;-54
2024/03/14 07:31:43;;;;;;;12.98;8.75;;;12.40;99.90;;;;;;5025019;28;20085;-53
2024/03/14 07:34:10;;;;;;;9.95;7.07;;;12.70;99.90;;;;;;5031290;28;20524;-49
2024/03/14 07:36:38;;;;;;;11.27;6.88;;;13.00;99.90;;;;;;5024331;28;20018;-52
2024/03/14 07:39:04;;;;;;;11.45;7.47;;;13.30;99.90;;;;;;5030325;28;20117;-53
2024/03/14 07:41:30;;;;;;;13.35;7.75;;;13.70;99.90;;;;;;5013155;28;20060;-56
2024/03/14 07:43:55;;;;;;;9.63;6.68;;;14.10;99.90;;;;;;5030651;28;20056;-57
2024/03/14 07:46:22;;;;;;;12.70;6.63;;;14.70;99.90;;;;;;5029677;28;20022;-49
2024/03/14 07:48:49;;;;;;;9.52;6.28;;;;;;;;;;5029800;28;20551;-53
2024/03/14 07:51:15;;;;;;;8.93;5.72;;;16.30;99.90;;;;;;5031110;28;20025;-49
2024/03/14 07:53:40;;;;;;;8.15;5.65;;;17.00;99.90;;;;;;5030467;28;20033;-49
2024/03/14 07:56:09;;;;;;;9.43;6.25;;;;;;;;;;5030676;28;20087;-51
2024/03/14 07:58:36;;;;;;;9.95;6.05;;;17.20;99.90;;;;;;5031192;28;20495;-49
2024/03/14 08:01:07;;;;;;;9.40;5.55;;;16.80;99.90;;;;;;5031356;28;20025;-49
2024/03/14 08:03:33;;;;;;;9.95;6.53;;;16.50;99.90;;;;;;5031317;28;20018;-48
2024/03/14 08:05:59;;;;;;;11.25;6.97;;;16.10;99.90;;;;;;5031331;28;20084;-48
2024/03/14 08:08:24;;;;;;;12.02;6.72;;;15.80;99.90;;;;;;5030971;28;20431;-47
2024/03/14 08:10:50;;;;;;;14.82;6.68;;;15.70;99.90;;;;;;5012930;28;20026;-52
2024/03/14 08:13:20;;;;;;;7.45;6.00;;;15.30;99.90;;;;;;5031410;28;20525;-49
2024/03/14 08:15:59;;;;;;;8.90;6.35;;;15.00;99.90;;;;;;5031066;28;20024;-52
2024/03/14 08:18:25;;;;;;;10.52;7.65;;;14.80;99.90;;;;;;5030987;28;20038;-52
2024/03/14 08:20:55;;;;;;;27.95;7.20;;;14.70;99.90;;;;;;5015603;28;20060;-54
2024/03/14 08:23:21;;;;;;;14.48;7.25;;;14.70;99.90;;;;;;5034837;28;20049;-51
2024/03/14 08:25:47;;;;;;;11.90;7.35;;;14.60;99.90;;;;;;5034642;28;20458;-49
2024/03/14 08:28:13;;;;;;;9.60;6.85;;;14.60;99.90;;;;;;5035108;28;20081;-52
2024/03/14 08:30:39;;;;;;;9.10;6.63;;;14.50;99.90;;;;;;5034251;28;20409;-52
2024/03/14 08:33:08;;;;;;;11.43;7.63;;;14.50;99.90;;;;;;5016739;28;20028;-51
2024/03/14 08:35:37;;;;;;;12.80;8.35;;;14.30;99.90;;;;;;5034701;28;20036;-52
2024/03/14 08:38:04;;;;;;;12.35;7.63;;;14.20;99.90;;;;;;5034396;28;20036;-51
2024/03/14 08:40:30;;;;;;;7.80;6.93;;;14.20;99.90;;;;;;5034162;28;20030;-48
2024/03/14 08:42:55;;;;;;;13.50;7.85;;;14.20;99.90;;;;;;5034288;28;20044;-50
2024/03/14 08:45:21;;;;;;;9.95;7.38;;;14.20;99.90;;;;;;5033974;28;20033;-50
2024/03/14 08:47:47;;;;;;;9.18;7.32;;;14.40;99.90;;;;;;5034188;28;20477;-49
2024/03/14 08:50:14;;;;;;;8.23;7.00;;;14.40;99.90;;;;;;5033852;28;20021;-49
2024/03/14 08:52:41;;;;;;;11.15;7.47;;;14.30;99.90;;;;;;5034136;28;20040;-51
2024/03/14 08:55:23;;;;;;;11.80;7.20;;;14.20;99.90;;;;;;5033881;28;20021;-51
2024/03/14 08:57:52;;;;;;;9.93;6.72;;;14.30;99.90;;;;;;5034101;28;20025;-49
2024/03/14 09:00:21;;;;;;;10.82;6.95;;;14.50;99.90;;;;;;5033663;28;20029;-52
2024/03/14 09:02:47;;;;;;;10.27;7.32;;;14.60;99.90;;;;;;5034003;28;20060;-50
2024/03/14 09:05:14;;;;;;;10.00;7.75;;;14.70;99.90;;;;;;5033880;28;20025;-53
2024/03/14 09:07:40;;;;;;;10.90;6.78;;;14.80;99.90;;;;;;5034024;28;20155;-50
2024/03/14 09:10:15;;;;;;;8.88;6.95;;;14.90;99.90;;;;;;5015899;28;20432;-50
2024/03/14 09:12:43;;;;;;;;;;;15.20;99.90;;;;;;5016613;28;20060;-47
2024/03/14 09:15:09;;;;;;;12.63;7.40;;;15.30;99.90;;;;;;5033684;28;19909;-55
2024/03/14 09:17:35;;;;;;;11.07;8.48;;;15.40;99.90;;;;;;5033604;28;20053;-50
2024/03/14 09:20:02;;;;;;;8.05;7.25;;;15.30;99.90;;;;;;5033010;28;20079;-54
2024/03/14 09:22:28;;;;;;;11.93;7.57;;;15.30;99.90;;;;;;5033807;28;20507;-52
2024/03/14 09:24:53;;;;;;;9.70;7.80;;;15.10;99.90;;;;;;5033790;28;20033;-52
2024/03/14 09:27:19;;;;;;;12.57;8.00;;;15.10;99.90;;;;;;5016036;28;20048;-50
2024/03/14 09:29:45;;;;;;;10.48;7.28;;;15.40;99.90;;;;;;5033164;28;20044;-53
2024/03/14 09:32:11;;;;;;;10.82;8.05;;;15.90;99.90;;;;;;5032712;28;20021;-50
2024/03/14 09:34:38;;;;;;;10.80;7.13;;;16.20;99.90;;;;;;5033357;28;20033;-52
2024/03/14 09:37:03;;;;;;;7.75;6.68;;;16.50;99.90;;;;;;5033292;28;20481;-49
2024/03/14 09:39:35;;;;;;;12.07;8.13;;;16.70;99.90;;;;;;5033150;28;20041;-51
2024/03/14 09:42:01;;;;;;;16.90;7.97;;;16.70;99.90;;;;;;5033314;28;20040;-52
2024/03/14 09:44:27;;;;;;;8.95;7.03;;;16.40;99.90;;;;;;5033246;28;20030;-47
2024/03/14 09:47:07;;;;;;;11.70;8.90;;;16.40;99.90;;;;;;5033468;28;20115;-51
2024/03/14 09:49:33;;;;;;;10.90;8.00;;;16.80;99.90;;;;;;5016127;28;20508;-48
2024/03/14 09:51:59;;;;;;;12.82;8.20;;;17.00;99.90;;;;;;5033026;28;20453;-49
2024/03/14 09:54:26;;;;;;;11.60;7.93;;;16.70;99.90;;;;;;5032591;28;20103;-49
2024/03/14 09:56:53;;;;;;;11.48;8.57;;;16.50;99.90;;;;;;5032665;28;20017;-48
2024/03/14 09:59:19;;;;;;;11.98;8.35;;;16.30;99.90;;;;;;5032833;28;20030;-50
2024/03/14 10:01:46;;;;;;;12.48;8.32;;;16.30;99.90;;;;;;5033335;28;20033;-49
2024/03/14 10:04:12;;;;;;;13.93;8.82;;;16.30;99.90;;;;;;5032408;28;20018;-48
2024/03/14 10:06:40;;;;;;;12.73;8.68;;;16.30;99.90;;;;;;5032190;28;20062;-47
2024/03/14 10:09:11;;;;;;;12.85;8.75;;;16.30;99.90;;;;;;5032062;28;20033;-48
2024/03/14 10:11:39;;;;;;;14.27;8.50;;;16.40;99.90;;;;;;5032722;28;20205;-52
2024/03/14 10:14:17;;;;;;;16.02;8.30;;;16.10;99.90;;;;;;5032675;28;20025;-55
2024/03/14 10:16:44;;;;;;;14.32;9.27;;;16.10;99.90;;;;;;4999938;28;20030;-54
2024/03/14 10:19:10;;;;;;;13.93;9.32;;;16.30;99.90;;;;;;5032057;28;20033;-53
2024/03/14 10:21:36;;;;;;;11.68;8.55;;;16.50;99.90;;;;;;5031984;28;20037;-57
2024/03/14 10:24:02;;;;;;;15.88;8.90;;;16.80;99.90;;;;;;5032233;28;20029;-54
2024/03/14 10:26:28;;;;;;;12.85;9.32;;;17.10;99.90;;;;;;5032264;28;20103;-53
2024/03/14 10:28:53;;;;;;;13.20;9.35;;;17.40;99.90;;;;;;5014283;28;20461;-56
2024/03/14 10:31:21;;;;;;;14.70;9.52;;;17.70;99.90;;;;;;5032150;28;20029;-55
2024/03/14 10:33:47;;;;;;;15.23;10.05;;;17.70;99.90;;;;;;5032121;28;20029;-56
2024/03/14 10:36:14;;;;;;;15.23;9.45;;;17.70;99.90;;;;;;5032181;28;20029;-53
2024/03/14 10:38:41;;;;;;;14.32;8.35;;;17.80;99.90;;;;;;5032205;28;20421;-58
2024/03/14 10:41:09;;;;;;;13.80;10.40;;;17.80;99.90;;;;;;5030694;28;20034;-55
2024/03/14 10:43:39;;;;;;;14.73;9.82;;;17.70;99.90;;;;;;5031156;28;20029;-57
2024/03/14 10:46:10;;;;;;;16.02;9.68;;;17.50;99.90;;;;;;5031929;28;20021;-54
2024/03/14 10:48:38;;;;;;;15.77;9.63;;;17.40;99.90;;;;;;5031730;28;20056;-57
2024/03/14 10:51:06;;;;;;;14.40;9.20;;;17.10;99.90;;;;;;5032309;28;20100;-53
2024/03/14 10:53:34;;;;;;;12.00;7.72;;;17.30;99.90;;;;;;5031804;28;20032;-59
2024/03/14 10:56:01;;;;;;;12.20;8.30;;;17.40;99.90;;;;;;5030932;28;20030;-56
2024/03/14 10:58:29;;;;;;;16.42;9.20;;;17.20;99.90;;;;;;5031334;28;20059;-60
2024/03/14 11:00:56;;;;;;;132.98;95.28;;;17.10;99.90;;;;;;5029762;28;20538;-60
2024/03/14 11:03:22;;;;;;;27.75;17.73;;;17.10;99.90;;;;;;5013769;28;20556;-59
2024/03/14 11:05:52;;;;;;;15.02;11.38;;;17.20;99.90;;;;;;5031688;28;20112;-60
2024/03/14 11:08:22;;;;;;;16.25;10.52;;;17.10;99.90;;;;;;5013724;28;20056;-58
2024/03/14 11:10:51;;;;;;;22.08;11.05;;;17.20;99.90;;;;;;5031909;28;20511;-60
2024/03/14 11:13:25;;;;;;;22.08;11.98;;;17.30;99.90;;;;;;5044350;28;20499;-61
2024/03/14 11:15:54;;;;;;;14.60;11.18;;;17.20;99.90;;;;;;5051736;28;20021;-57
2024/03/14 11:18:24;;;;;;;14.45;11.65;;;17.10;99.90;;;;;;5022598;28;20121;-59
2024/03/14 11:20:54;;;;;;;12.82;10.02;;;17.00;99.90;;;;;;5013139;28;20040;-59
2024/03/14 11:23:24;;;;;;;21.05;11.93;;;16.90;99.90;;;;;;5026177;28;20379;-58
2024/03/14 11:25:55;;;;;;;13.95;10.18;;;16.90;99.90;;;;;;5010801;28;20014;-60
2024/03/14 11:28:22;;;;;;;11.10;9.90;;;16.80;99.90;;;;;;5030574;28;20026;-58
2024/03/14 11:30:52;;;;;;;13.45;10.27;;;16.70;99.90;;;;;;5031096;28;20022;-57
2024/03/14 11:33:18;;;;;;;13.30;10.98;;;16.60;99.90;;;;;;5031626;28;20025;-58
2024/03/14 11:35:44;;;;;;;13.55;11.57;;;16.60;99.90;;;;;;5029843;28;20026;-56
2024/03/14 11:38:15;;;;;;;13.38;10.85;;;16.70;99.90;;;;;;5044531;28;20025;-60
2024/03/14 11:40:42;;;;;;;11.55;9.73;;;16.60;99.90;;;;;;5032141;28;20036;-59
2024/03/14 11:43:13;;;;;;;10.40;9.15;;;16.70;99.90;;;;;;5050834;28;20017;-59
2024/03/14 11:45:40;;;;;;;10.57;9.57;;;16.80;99.90;;;;;;5031908;28;20075;-59
2024/03/14 11:48:08;;;;;;;10.43;9.27;;;16.70;99.90;;;;;;5033163;28;20029;-59
2024/03/14 11:50:36;;;;;;;14.57;9.15;;;16.70;99.90;;;;;;5051073;28;20025;-59
2024/03/14 11:53:02;;;;;;;10.57;8.57;;;16.70;99.90;;;;;;5051278;28;20079;-54
2024/03/14 11:55:31;;;;;;;14.02;8.70;;;16.70;99.90;;;;;;5031830;28;20037;-57
2024/03/14 11:57:57;;;;;;;11.68;8.27;;;16.70;99.90;;;;;;5035534;28;20537;-50
2024/03/14 12:00:26;;;;;;;14.35;10.27;;;16.80;99.90;;;;;;5033882;28;20262;-56
2024/03/14 12:02:52;;;;;;;14.32;11.07;;;16.80;99.90;;;;;;5034050;28;20535;-55
2024/03/14 12:05:25;;;;;;;14.77;10.95;;;16.80;99.90;;;;;;5035021;28;20057;-51
2024/03/14 12:07:58;;;;;;;11.13;9.88;;;16.80;99.90;;;;;;5034672;28;20472;-53
2024/03/14 12:10:24;;;;;;;13.90;10.10;;;16.80;99.90;;;;;;5033903;28;20025;-54
2024/03/14 12:12:51;;;;;;;10.45;9.45;;;16.70;99.90;;;;;;5034788;28;20030;-50
2024/03/14 12:15:18;;;;;;;9.52;8.63;;;16.80;99.90;;;;;;5034771;28;20028;-52
2024/03/14 12:17:44;;;;;;;10.35;9.20;;;16.90;99.90;;;;;;5032961;28;20017;-54
2024/03/14 12:20:12;;;;;;;32.55;23.98;;;16.80;99.90;;;;;;5014741;28;20065;-55
2024/03/14 12:22:42;;;;;;;32.55;23.90;;;16.80;99.90;;;;;;5034245;28;20029;-54
2024/03/14 12:25:15;;;;;;;12.95;10.18;;;16.80;99.90;;;;;;5034162;28;20511;-54
2024/03/14 12:27:42;;;;;;;10.55;8.45;;;16.80;99.90;;;;;;5015733;28;20037;-53
2024/03/14 12:30:09;;;;;;;12.88;9.27;;;16.70;99.90;;;;;;5033177;28;20520;-56
2024/03/14 12:32:37;;;;;;;12.10;8.30;;;16.70;99.90;;;;;;5034580;28;20366;-55
2024/03/14 12:35:09;;;;;;;9.15;7.90;;;16.60;99.90;;;;;;5020952;28;20025;-54
2024/03/14 12:37:34;;;;;;;9.85;8.00;;;16.50;99.90;;;;;;5051913;28;20029;-53
2024/03/14 12:40:01;;;;;;;10.20;8.38;;;16.50;99.90;;;;;;5052411;28;20029;-53